createdAt,value
2022-11-24T00:02:07.849Z,99519.07
2022-11-24T00:06:16.774Z,99524.00
2022-11-24T00:10:24.829Z,99524.53
2022-11-24T00:14:33.281Z,99524.77
2022-11-24T00:18:42.233Z,99528.52
2022-11-24T00:22:50.192Z,99531.80
2022-11-24T00:26:57.984Z,99532.92
2022-11-24T00:31:06.296Z,99533.54
2022-11-24T00:35:13.819Z,99534.63
2022-11-24T00:39:23.349Z,99528.77
2022-11-24T00:43:30.484Z,99535.70
2022-11-24T00:47:39.029Z,99537.38
2022-11-24T00:51:46.623Z,99533.48
2022-11-24T00:55:54.599Z,99531.36
2022-11-24T01:00:02.373Z,99534.57
2022-11-24T01:04:11.873Z,99534.88
2022-11-24T01:08:21.158Z,99539.39
2022-11-24T01:12:29.300Z,99544.59
2022-11-24T01:16:38.995Z,99543.44
2022-11-24T01:20:46.686Z,99544.76
2022-11-24T01:24:54.301Z,99541.95
2022-11-24T01:29:01.966Z,99546.06
2022-11-24T01:33:10.217Z,99546.08
2022-11-24T01:37:18.272Z,99551.19
2022-11-24T01:41:27.282Z,99553.97
2022-11-24T01:45:41.345Z,99552.37
2022-11-24T01:49:51.237Z,99552.53
2022-11-24T01:54:02.290Z,99547.15
2022-11-24T01:58:11.505Z,99545.99
2022-11-24T02:02:19.320Z,99542.44
2022-11-24T02:06:31.377Z,99540.61
2022-11-24T02:10:39.625Z,99543.91
2022-11-24T02:14:47.835Z,99543.55
2022-11-24T02:18:55.817Z,99545.38
2022-11-24T02:23:07.177Z,99539.26
2022-11-24T02:27:14.698Z,99538.66
2022-11-24T02:31:22.403Z,99541.52
2022-11-24T02:35:31.239Z,99538.76
2022-11-24T02:39:38.886Z,99540.34
2022-11-24T02:43:48.914Z,99549.30
2022-11-24T02:47:57.426Z,99553.77
2022-11-24T02:52:07.394Z,99553.70
2022-11-24T02:56:14.910Z,99556.86
2022-11-24T03:00:23.716Z,99560.27
2022-11-24T03:04:31.404Z,99565.12
2022-11-24T03:08:42.321Z,99560.45
2022-11-24T03:12:50.088Z,99566.25
2022-11-24T03:16:57.985Z,99562.14
2022-11-24T03:21:07.523Z,99566.30
2022-11-24T03:25:14.919Z,99571.55
2022-11-24T03:29:25.196Z,99564.93
2022-11-24T03:33:32.665Z,99567.29
2022-11-24T03:37:41.960Z,99569.78
2022-11-24T03:41:51.655Z,99572.23
2022-11-24T03:45:59.789Z,99571.95
2022-11-24T03:50:09.438Z,99569.14
2022-11-24T03:54:19.219Z,99575.44
2022-11-24T03:58:27.131Z,99571.05
2022-11-24T04:02:34.533Z,99577.02
2022-11-24T04:06:42.798Z,99580.95
2022-11-24T04:10:52.646Z,99583.30
2022-11-24T04:15:00.128Z,99585.73
2022-11-24T04:19:09.179Z,99582.15
2022-11-24T04:23:17.274Z,99580.81
2022-11-24T04:27:24.707Z,99579.87
2022-11-24T04:31:32.457Z,99589.05
2022-11-24T04:35:39.981Z,99594.42
2022-11-24T04:39:48.278Z,99603.32
2022-11-24T04:43:55.893Z,99603.95
2022-11-24T04:48:03.602Z,99611.55
2022-11-24T04:52:11.058Z,99616.44
2022-11-24T04:56:18.896Z,99620.80
2022-11-24T05:00:26.764Z,99623.45
2022-11-24T05:04:36.309Z,99622.79
2022-11-24T05:08:44.845Z,99628.36
2022-11-24T05:12:59.767Z,99629.00
2022-11-24T05:17:07.943Z,99625.62
2022-11-24T05:21:15.833Z,99631.98
2022-11-24T05:25:23.351Z,99641.17
2022-11-24T05:29:31.378Z,99641.56
2022-11-24T05:33:38.859Z,99646.06
2022-11-24T05:37:47.780Z,99647.40
2022-11-24T05:41:55.581Z,99647.15
2022-11-24T05:46:06.574Z,99653.73
2022-11-24T05:50:15.606Z,99654.88
2022-11-24T05:54:23.784Z,99661.11
2022-11-24T05:58:32.872Z,99665.36
2022-11-24T06:02:41.362Z,99665.32
2022-11-24T06:06:49.253Z,99675.30
2022-11-24T06:11:16.325Z,99682.06
2022-11-24T06:15:24.276Z,99687.61
2022-11-24T06:19:32.501Z,99701.86
2022-11-24T06:23:41.823Z,99713.29
2022-11-24T06:27:50.185Z,99724.36
2022-11-24T06:31:57.602Z,99729.02
2022-11-24T06:36:08.006Z,99740.77
2022-11-24T06:40:17.486Z,99739.48
2022-11-24T06:44:25.469Z,99743.16
2022-11-24T06:48:35.679Z,99747.64
2022-11-24T06:52:44.184Z,99751.02
2022-11-24T06:56:57.051Z,99754.11
2022-11-24T07:01:04.825Z,99757.15
2022-11-24T07:05:13.166Z,99762.09
2022-11-24T07:09:20.471Z,99762.04
2022-11-24T07:13:28.528Z,99765.31
2022-11-24T07:17:39.013Z,99774.52
2022-11-24T07:21:46.494Z,99779.95
2022-11-24T07:25:54.005Z,99788.45
2022-11-24T07:30:03.395Z,99786.75
2022-11-24T07:34:12.970Z,99785.63
2022-11-24T07:38:20.761Z,99789.04
2022-11-24T07:42:28.479Z,99790.43
2022-11-24T07:46:36.061Z,99794.66
2022-11-24T07:50:43.592Z,99795.48
2022-11-24T07:54:51.277Z,99790.67
2022-11-24T07:58:58.919Z,99793.23
2022-11-24T08:03:06.894Z,99791.66
2022-11-24T08:07:14.777Z,99797.27
2022-11-24T08:11:23.180Z,99800.05
2022-11-24T08:15:31.842Z,99803.63
2022-11-24T08:19:39.434Z,99804.95
2022-11-24T08:23:46.923Z,99808.36
2022-11-24T08:27:54.173Z,99817.17
2022-11-24T08:32:01.893Z,99817.97
2022-11-24T08:36:12.067Z,99819.01
2022-11-24T08:40:20.734Z,99815.41
2022-11-24T08:44:29.725Z,99821.87
2022-11-24T08:48:38.132Z,99824.48
2022-11-24T08:52:45.874Z,99827.27
2022-11-24T08:56:53.740Z,99824.09
2022-11-24T09:01:07.489Z,99828.05
2022-11-24T09:05:43.650Z,99833.77
2022-11-24T09:09:44.759Z,99833.16
2022-11-24T09:13:53.100Z,99837.65
2022-11-24T09:18:01.859Z,99833.92
2022-11-24T09:22:10.064Z,99843.30
2022-11-24T09:26:19.756Z,99844.86
2022-11-24T09:30:27.366Z,99842.13
2022-11-24T09:34:35.021Z,99843.33
2022-11-24T09:38:42.922Z,99844.70
2022-11-24T09:42:58.425Z,99841.89
2022-11-24T09:47:11.379Z,99846.59
2022-11-24T09:51:19.713Z,99846.51
2022-11-24T09:55:34.905Z,99844.10
2022-11-24T09:59:43.830Z,99847.49
2022-11-24T10:03:53.444Z,99845.60
2022-11-24T10:08:10.099Z,99843.96
2022-11-24T10:12:39.965Z,99840.00
2022-11-24T10:16:53.615Z,99840.11
2022-11-24T10:21:09.744Z,99844.79
2022-11-24T10:25:23.969Z,99842.52
2022-11-24T10:29:35.248Z,99843.56
2022-11-24T10:33:43.630Z,99841.91
2022-11-24T10:37:58.768Z,99843.02
2022-11-24T10:42:13.109Z,99844.34
2022-11-24T10:46:27.105Z,99843.50
2022-11-24T10:50:37.643Z,99840.52
2022-11-24T10:54:59.301Z,99840.91
2022-11-24T10:59:34.009Z,99841.84
2022-11-24T11:03:49.610Z,99842.55
2022-11-24T11:08:16.116Z,99846.50
2022-11-24T11:12:43.461Z,99846.70
2022-11-24T11:16:55.652Z,99843.63
2022-11-24T11:21:04.779Z,99846.36
2022-11-24T11:25:23.034Z,99845.22
2022-11-24T11:34:06.138Z,99847.05
2022-11-24T11:38:16.291Z,99842.98
2022-11-24T11:43:00.093Z,99841.02
2022-11-24T11:46:56.114Z,99844.71
2022-11-24T11:51:22.979Z,99846.34
2022-11-24T11:55:46.582Z,99851.32
2022-11-24T12:00:09.951Z,99857.83
2022-11-24T12:04:26.472Z,99857.36
2022-11-24T12:09:18.066Z,99849.48
2022-11-24T12:13:37.939Z,99846.47
2022-11-24T12:17:47.896Z,99844.28
2022-11-24T12:22:00.504Z,99839.46
2022-11-24T12:26:14.700Z,99838.88
2022-11-24T12:30:24.134Z,99846.59
2022-11-24T12:34:44.943Z,99855.31
2022-11-24T12:38:59.271Z,99858.85
2022-11-24T12:43:12.895Z,99863.41
2022-11-24T12:47:24.054Z,99863.02
2022-11-24T12:51:34.993Z,99862.42
2022-11-24T12:55:43.036Z,99865.48
2022-11-24T12:59:57.936Z,99869.12
2022-11-24T13:04:12.096Z,99868.09
2022-11-24T13:08:20.011Z,99874.14
2022-11-24T13:12:31.527Z,99874.39
2022-11-24T13:17:21.882Z,99872.82
2022-11-24T13:21:47.667Z,99871.35
2022-11-24T13:26:29.224Z,99876.05
2022-11-24T13:31:08.983Z,99877.36
2022-11-24T13:35:18.295Z,99879.29
2022-11-24T13:39:50.909Z,99880.27
2022-11-24T13:44:25.407Z,99885.23
2022-11-24T13:49:02.535Z,99884.09
2022-11-24T13:53:14.834Z,99885.93
2022-11-24T13:57:39.822Z,99885.20
2022-11-24T14:01:48.836Z,99891.59
2022-11-24T14:05:56.759Z,99896.34
2022-11-24T14:10:04.922Z,99901.86
2022-11-24T14:14:21.803Z,99908.40
2022-11-24T14:18:30.207Z,99913.80
2022-11-24T14:22:40.947Z,99917.39
2022-11-24T14:26:49.133Z,99912.02
2022-11-24T14:31:10.064Z,99911.91
2022-11-24T14:35:26.557Z,99920.34
2022-11-24T14:39:43.626Z,99924.70
2022-11-24T14:43:50.939Z,99932.19
2022-11-24T14:47:58.663Z,99932.28
2022-11-24T14:52:12.871Z,99928.58
2022-11-24T14:56:31.674Z,99933.80
2022-11-24T15:00:40.163Z,99935.92
2022-11-24T15:05:03.615Z,99936.83
2022-11-24T15:09:23.622Z,99939.27
2022-11-24T15:13:33.399Z,99944.75
2022-11-24T15:17:47.417Z,99950.80
2022-11-24T15:21:55.334Z,99949.23
2022-11-24T15:26:32.215Z,99956.86
2022-11-24T15:30:43.581Z,99963.95
2022-11-24T15:34:51.267Z,99973.22
2022-11-24T15:38:59.352Z,99976.17
2022-11-24T15:43:20.045Z,99980.33
2022-11-24T15:47:27.477Z,99989.09
2022-11-24T15:51:35.261Z,99993.90
2022-11-24T15:55:43.722Z,99996.05
2022-11-24T15:59:51.735Z,99998.10
2022-11-24T16:04:00.417Z,99999.74
2022-11-24T16:08:10.257Z,100004.27
2022-11-24T16:12:17.982Z,100005.73
2022-11-24T16:16:26.224Z,100005.75
2022-11-24T16:20:37.111Z,100005.84
2022-11-24T16:24:44.610Z,100008.80
2022-11-24T16:28:52.077Z,100015.32
2022-11-24T16:32:59.840Z,100015.42
2022-11-24T16:37:11.556Z,100016.25
2022-11-24T16:41:19.224Z,100014.47
2022-11-24T16:45:26.787Z,100017.21
2022-11-24T16:49:34.669Z,100023.64
2022-11-24T16:53:42.664Z,100033.26
2022-11-24T16:57:50.535Z,100038.25
2022-11-24T17:01:58.290Z,100043.42
2022-11-24T17:06:08.261Z,100045.89
2022-11-24T17:10:16.161Z,100049.77
2022-11-24T17:14:23.417Z,100054.73
2022-11-24T17:18:30.913Z,100055.33
2022-11-24T17:22:38.749Z,100059.70
2022-11-24T17:26:49.152Z,100064.76
2022-11-24T17:30:56.790Z,100069.35
2022-11-24T17:35:06.476Z,100075.27
2022-11-24T17:39:15.307Z,100081.02
2022-11-24T17:43:23.944Z,100081.25
2022-11-24T17:47:31.547Z,100081.33
2022-11-24T17:51:39.551Z,100085.88
2022-11-24T17:55:48.504Z,100095.06
2022-11-24T17:59:56.539Z,100097.10
2022-11-24T18:04:05.301Z,100098.02
2022-11-24T18:08:13.879Z,100100.30
2022-11-24T18:12:21.863Z,100099.62
2022-11-24T18:16:30.639Z,100103.36
2022-11-24T18:20:38.713Z,100106.05
2022-11-24T18:24:46.443Z,100107.15
2022-11-24T18:28:55.025Z,100111.52
2022-11-24T18:33:03.028Z,100113.54
2022-11-24T18:37:13.478Z,100113.77
2022-11-24T18:41:22.566Z,100117.38
2022-11-24T18:45:30.174Z,100118.98
2022-11-24T18:49:37.937Z,100119.05
2022-11-24T18:53:47.090Z,100113.72
2022-11-24T18:57:54.753Z,100110.55
2022-11-24T19:02:02.121Z,100112.76
2022-11-24T19:06:12.291Z,100113.91
2022-11-24T19:10:21.921Z,100117.25
2022-11-24T19:14:29.780Z,100117.16
2022-11-24T19:18:38.903Z,100120.65
2022-11-24T19:22:46.748Z,100121.59
2022-11-24T19:26:55.612Z,100123.10
2022-11-24T19:31:05.253Z,100130.98
2022-11-24T19:35:13.053Z,100135.15
2022-11-24T19:39:21.816Z,100138.29
2022-11-24T19:43:30.013Z,100142.50
2022-11-24T19:47:37.479Z,100151.49
2022-11-24T19:51:45.147Z,100154.72
2022-11-24T19:55:52.440Z,100158.22
2022-11-24T20:00:00.140Z,100159.14
2022-11-24T20:04:12.396Z,100159.58
2022-11-24T20:08:20.508Z,100166.76
2022-11-24T20:12:29.469Z,100172.52
2022-11-24T20:16:37.616Z,100179.30
2022-11-24T20:20:45.743Z,100179.84
2022-11-24T20:24:52.982Z,100180.25
2022-11-24T20:29:01.617Z,100181.42
2022-11-24T20:33:09.850Z,100189.27
2022-11-24T20:37:17.829Z,100186.65
2022-11-24T20:41:28.861Z,100188.92
2022-11-24T20:45:39.805Z,100187.07
2022-11-24T20:49:46.974Z,100190.98
2022-11-24T20:53:56.574Z,100197.42
2022-11-24T20:58:05.187Z,100204.77
2022-11-24T21:02:13.379Z,100209.55
2022-11-24T21:06:21.258Z,100212.84
2022-11-24T21:10:31.716Z,100215.02
2022-11-24T21:14:42.072Z,100219.40
2022-11-24T21:18:51.670Z,100220.15
2022-11-24T21:22:59.075Z,100219.57
2022-11-24T21:27:07.103Z,100220.07
2022-11-24T21:31:16.977Z,100219.34
2022-11-24T21:35:25.371Z,100221.92
2022-11-24T21:39:33.510Z,100226.59
2022-11-24T21:43:41.655Z,100225.27
2022-11-24T21:47:50.078Z,100223.52
2022-11-24T21:51:57.503Z,100226.52
2022-11-24T21:56:07.328Z,100227.27
2022-11-24T22:00:17.334Z,100231.27
2022-11-24T22:04:24.984Z,100232.56
2022-11-24T22:08:33.303Z,100236.99
2022-11-24T22:12:40.532Z,100241.83
2022-11-24T22:16:48.347Z,100245.85
2022-11-24T22:20:59.510Z,100244.21
2022-11-24T22:25:07.601Z,100244.01
2022-11-24T22:29:15.697Z,100243.08
2022-11-24T22:33:23.313Z,100247.48
2022-11-24T22:37:31.204Z,100248.58
2022-11-24T22:41:38.747Z,100251.55
2022-11-24T22:45:46.359Z,100249.14
2022-11-24T22:49:53.907Z,100248.77
2022-11-24T22:54:02.862Z,100252.80
2022-11-24T22:58:12.576Z,100247.31
2022-11-24T23:02:20.134Z,100249.38
2022-11-24T23:06:29.185Z,100257.02
2022-11-24T23:10:36.962Z,100257.34
2022-11-24T23:14:46.188Z,100254.23
2022-11-24T23:18:54.228Z,100255.39
2022-11-24T23:23:01.982Z,100253.23
2022-11-24T23:27:09.428Z,100258.34
2022-11-24T23:31:21.130Z,100259.84
2022-11-24T23:35:29.007Z,100261.85
2022-11-24T23:39:36.254Z,100260.37
2022-11-24T23:43:44.665Z,100262.77
2022-11-24T23:47:52.683Z,100270.33
2022-11-24T23:52:00.434Z,100271.03
2022-11-24T23:56:08.762Z,100270.23
